createdAt,value
2018-05-24T00:01:00.504Z,5.67
2018-05-24T00:03:28.877Z,8.33
2018-05-24T00:05:57.252Z,5.20
2018-05-24T00:08:25.686Z,4.30
2018-05-24T00:10:54.083Z,4.47
2018-05-24T00:13:22.535Z,6.50
2018-05-24T00:15:50.894Z,8.90
2018-05-24T00:18:19.270Z,5.13
2018-05-24T00:20:47.629Z,4.33
2018-05-24T00:23:15.982Z,4.90
2018-05-24T00:25:44.328Z,4.17
2018-05-24T00:28:12.752Z,5.90
2018-05-24T00:30:41.096Z,3.83
2018-05-24T00:33:09.466Z,3.43
2018-05-24T00:35:37.820Z,4.00
2018-05-24T00:38:06.166Z,4.40
2018-05-24T00:40:34.588Z,3.33
2018-05-24T00:43:02.926Z,8.80
2018-05-24T00:45:31.272Z,3.27
2018-05-24T00:47:59.617Z,7.17
2018-05-24T00:50:27.957Z,3.27
2018-05-24T00:52:56.353Z,5.10
2018-05-24T00:55:36.323Z,3.53
2018-05-24T00:58:04.674Z,3.00
2018-05-24T01:00:33.027Z,6.50
2018-05-24T01:03:01.436Z,3.67
2018-05-24T01:05:29.878Z,6.80
2018-05-24T01:07:58.233Z,3.23
2018-05-24T01:10:26.626Z,5.07
2018-05-24T01:12:54.976Z,3.47
2018-05-24T01:15:23.411Z,3.57
2018-05-24T01:17:51.781Z,4.53
2018-05-24T01:20:20.141Z,7.47
2018-05-24T01:22:48.526Z,5.10
2018-05-24T01:25:16.927Z,3.33
2018-05-24T01:27:45.305Z,4.13
2018-05-24T01:30:13.673Z,3.37
2018-05-24T01:32:42.019Z,9.13
2018-05-24T01:35:10.356Z,4.53
2018-05-24T01:37:49.502Z,3.57
2018-05-24T01:40:18.040Z,5.87
2018-05-24T01:42:47.324Z,4.17
2018-05-24T01:45:15.726Z,4.00
2018-05-24T01:47:44.100Z,4.30
2018-05-24T01:50:12.546Z,4.30
2018-05-24T01:52:40.966Z,5.77
2018-05-24T01:55:09.447Z,11.20
2018-05-24T01:57:37.836Z,10.00
2018-05-24T02:00:06.193Z,4.77
2018-05-24T02:02:34.554Z,4.70
2018-05-24T02:05:02.905Z,7.20
2018-05-24T02:07:31.411Z,5.60
2018-05-24T02:09:59.838Z,9.13
2018-05-24T02:12:28.197Z,5.60
2018-05-24T02:14:56.560Z,6.40
2018-05-24T02:17:25.831Z,7.60
2018-05-24T02:19:54.186Z,5.63
2018-05-24T02:22:22.617Z,11.93
2018-05-24T02:24:50.976Z,5.83
2018-05-24T02:27:19.436Z,5.83
2018-05-24T02:29:47.798Z,5.70
2018-05-24T02:32:16.193Z,6.67
2018-05-24T02:34:44.603Z,7.23
2018-05-24T02:37:13.021Z,8.10
2018-05-24T02:39:41.466Z,5.20
2018-05-24T02:42:13.646Z,8.53
2018-05-24T02:44:42.074Z,6.87
2018-05-24T02:47:10.528Z,6.10
2018-05-24T02:49:38.880Z,5.00
2018-05-24T02:52:07.305Z,6.73
2018-05-24T02:54:35.701Z,5.70
2018-05-24T02:57:04.089Z,6.67
2018-05-24T02:59:32.512Z,10.10
2018-05-24T03:02:01.871Z,5.60
2018-05-24T03:04:30.265Z,7.90
2018-05-24T03:06:58.654Z,5.10
2018-05-24T03:09:27.107Z,14.23
2018-05-24T03:11:55.527Z,6.20
2018-05-24T03:14:24.052Z,5.53
2018-05-24T03:16:52.510Z,5.80
2018-05-24T03:19:21.015Z,5.63
2018-05-24T03:21:49.430Z,8.20
2018-05-24T03:24:17.853Z,5.87
2018-05-24T03:26:46.285Z,6.17
2018-05-24T03:29:14.709Z,11.83
2018-05-24T03:31:43.175Z,8.80
2018-05-24T03:34:11.645Z,5.43
2018-05-24T03:36:40.027Z,8.47
2018-05-24T03:39:08.466Z,15.90
2018-05-24T03:41:36.848Z,5.17
2018-05-24T03:44:05.235Z,5.50
2018-05-24T03:46:33.641Z,7.47
2018-05-24T03:49:02.083Z,5.30
2018-05-24T03:51:31.536Z,9.53
2018-05-24T03:53:59.902Z,6.00
2018-05-24T03:56:28.392Z,9.27
2018-05-24T03:59:01.216Z,6.13
2018-05-24T04:04:44.492Z,5.73
2018-05-24T04:07:13.545Z,5.67
2018-05-24T04:09:41.949Z,6.00
2018-05-24T04:12:10.401Z,8.90
2018-05-24T04:14:38.772Z,5.53
2018-05-24T04:17:07.194Z,6.57
2018-05-24T04:19:35.645Z,6.80
2018-05-24T04:22:04.036Z,10.30
2018-05-24T04:24:32.452Z,9.67
2018-05-24T04:27:00.867Z,7.53
2018-05-24T04:29:29.356Z,6.23
2018-05-24T04:31:57.807Z,7.30
2018-05-24T04:34:26.316Z,7.00
2018-05-24T04:36:54.746Z,6.20
2018-05-24T04:39:23.158Z,9.03
2018-05-24T04:41:51.646Z,7.80
2018-05-24T04:44:20.134Z,11.00
2018-05-24T04:46:48.539Z,11.57
2018-05-24T04:49:17.019Z,5.83
2018-05-24T04:51:45.416Z,7.67
2018-05-24T04:54:13.812Z,7.57
2018-05-24T04:56:42.249Z,8.07
2018-05-24T04:59:10.659Z,11.17
2018-05-24T05:01:39.103Z,7.83
2018-05-24T05:04:07.553Z,9.30
2018-05-24T05:06:35.948Z,11.00
2018-05-24T05:09:07.045Z,8.57
2018-05-24T05:11:35.415Z,8.53
2018-05-24T05:14:03.802Z,13.20
2018-05-24T05:16:32.196Z,11.47
2018-05-24T05:19:00.561Z,13.20
2018-05-24T05:21:29.044Z,9.13
2018-05-24T05:23:57.503Z,16.33
2018-05-24T05:26:25.979Z,9.30
2018-05-24T05:28:54.450Z,9.90
2018-05-24T05:31:22.843Z,9.10
2018-05-24T05:33:51.368Z,10.20
2018-05-24T05:36:19.763Z,8.67
2018-05-24T05:38:48.271Z,10.27
2018-05-24T05:41:16.677Z,11.23
2018-05-24T05:43:45.125Z,8.73
2018-05-24T05:46:13.627Z,11.23
2018-05-24T05:48:42.039Z,11.40
2018-05-24T05:51:10.449Z,15.73
2018-05-24T05:53:38.905Z,11.17
2018-05-24T05:56:08.256Z,14.97
2018-05-24T05:58:36.706Z,11.07
2018-05-24T06:01:05.177Z,14.30
2018-05-24T06:03:33.579Z,11.93
2018-05-24T06:06:01.978Z,13.90
2018-05-24T06:08:30.384Z,10.50
2018-05-24T06:10:58.919Z,19.73
2018-05-24T06:13:27.339Z,14.20
2018-05-24T06:15:55.749Z,12.70
2018-05-24T06:18:24.181Z,14.23
2018-05-24T06:20:53.642Z,13.97
2018-05-24T06:23:22.161Z,14.37
2018-05-24T06:25:50.525Z,12.87
2018-05-24T06:28:19.009Z,11.97
2018-05-24T06:30:47.389Z,14.07
2018-05-24T06:33:15.749Z,14.90
2018-05-24T06:35:44.162Z,9.60
2018-05-24T06:38:12.577Z,15.77
2018-05-24T06:40:40.942Z,9.30
2018-05-24T06:43:09.365Z,10.80
2018-05-24T06:45:37.712Z,8.70
2018-05-24T06:48:06.135Z,9.63
2018-05-24T06:50:34.552Z,8.63
2018-05-24T06:53:02.895Z,7.73
2018-05-24T06:55:33.199Z,8.50
2018-05-24T06:58:01.582Z,9.83
2018-05-24T07:00:29.938Z,9.80
2018-05-24T07:02:58.293Z,8.83
2018-05-24T07:05:26.714Z,10.23
2018-05-24T07:07:55.123Z,9.47
2018-05-24T07:10:23.569Z,12.00
2018-05-24T07:12:52.090Z,13.03
2018-05-24T07:15:20.451Z,10.83
2018-05-24T07:17:48.857Z,14.03
2018-05-24T07:20:17.229Z,11.60
2018-05-24T07:22:45.596Z,14.93
2018-05-24T07:25:13.976Z,16.03
2018-05-24T07:27:43.317Z,13.47
2018-05-24T07:30:11.746Z,13.43
2018-05-24T07:32:40.170Z,16.47
2018-05-24T07:35:08.547Z,13.07
2018-05-24T07:37:37.034Z,15.40
2018-05-24T07:40:05.447Z,15.30
2018-05-24T07:42:33.869Z,13.63
2018-05-24T07:45:02.272Z,21.50
2018-05-24T07:47:30.698Z,13.57
2018-05-24T07:49:59.097Z,14.23
2018-05-24T07:52:27.485Z,14.60
2018-05-24T07:54:55.877Z,14.90
2018-05-24T07:57:24.217Z,16.93
2018-05-24T07:59:52.686Z,13.20
2018-05-24T08:02:21.066Z,16.07
2018-05-24T08:04:49.446Z,11.87
2018-05-24T08:07:17.881Z,22.90
2018-05-24T08:09:46.250Z,12.80
2018-05-24T08:12:14.642Z,10.03
2018-05-24T08:14:43.089Z,9.27
2018-05-24T08:17:11.387Z,10.53
2018-05-24T08:19:39.734Z,10.03
2018-05-24T08:22:08.099Z,8.60
2018-05-24T08:24:36.575Z,12.27
2018-05-24T08:27:05.013Z,11.90
2018-05-24T08:29:33.385Z,9.03
2018-05-24T08:32:01.761Z,10.50
2018-05-24T08:34:30.096Z,8.90
2018-05-24T08:36:58.539Z,9.70
2018-05-24T08:39:26.932Z,9.70
2018-05-24T08:41:55.347Z,11.30
2018-05-24T08:44:23.713Z,11.80
2018-05-24T08:46:52.089Z,10.87
2018-05-24T08:49:20.450Z,10.87
2018-05-24T08:51:48.820Z,9.83
2018-05-24T08:54:17.276Z,10.97
2018-05-24T08:56:45.656Z,10.50
2018-05-24T08:59:14.035Z,11.47
2018-05-24T09:01:42.699Z,10.30
2018-05-24T09:04:11.249Z,12.77
2018-05-24T09:06:39.882Z,11.47
2018-05-24T09:09:08.333Z,12.00
2018-05-24T09:11:36.635Z,12.20
2018-05-24T09:14:04.992Z,14.37
2018-05-24T09:16:33.611Z,12.80
2018-05-24T09:19:01.970Z,16.83
2018-05-24T09:21:30.367Z,15.07
2018-05-24T09:23:58.839Z,14.90
2018-05-24T09:26:27.195Z,32.93
2018-05-24T09:28:55.594Z,17.40
2018-05-24T09:31:23.987Z,15.87
2018-05-24T09:33:52.374Z,13.60
2018-05-24T09:36:20.833Z,13.73
2018-05-24T09:38:49.305Z,16.13
2018-05-24T09:41:17.673Z,16.23
2018-05-24T09:43:46.055Z,14.53
2018-05-24T09:46:14.440Z,13.93
2018-05-24T09:48:42.973Z,12.70
2018-05-24T09:51:11.399Z,14.93
2018-05-24T09:53:39.873Z,16.33
2018-05-24T09:56:08.280Z,13.57
2018-05-24T09:58:36.670Z,14.77
2018-05-24T10:01:05.084Z,13.53
2018-05-24T10:03:33.481Z,13.10
2018-05-24T10:06:01.943Z,14.40
2018-05-24T10:08:33.712Z,15.53
2018-05-24T10:11:03.205Z,17.03
2018-05-24T10:13:31.640Z,13.73
2018-05-24T10:16:01.260Z,14.13
2018-05-24T10:18:29.704Z,15.10
2018-05-24T10:20:58.268Z,14.17
2018-05-24T10:23:27.820Z,12.73
2018-05-24T10:25:56.238Z,12.30
2018-05-24T10:28:24.689Z,12.63
2018-05-24T10:30:53.115Z,11.80
2018-05-24T10:33:22.457Z,11.30
2018-05-24T10:35:50.839Z,15.30
2018-05-24T10:38:19.230Z,13.80
2018-05-24T10:40:47.612Z,14.70
2018-05-24T10:43:16.014Z,16.23
2018-05-24T10:45:44.420Z,15.47
2018-05-24T10:48:12.824Z,15.20
2018-05-24T10:50:41.228Z,15.83
2018-05-24T10:53:08.885Z,18.00
2018-05-24T10:55:41.843Z,16.80
2018-05-24T10:58:10.270Z,20.20
2018-05-24T11:00:38.715Z,17.40
2018-05-24T11:03:07.211Z,17.57
2018-05-24T11:05:35.655Z,15.50
2018-05-24T11:08:04.035Z,13.57
2018-05-24T11:10:32.481Z,13.77
2018-05-24T11:13:01.953Z,12.17
2018-05-24T11:15:30.425Z,11.57
2018-05-24T11:17:58.850Z,10.33
2018-05-24T11:20:28.545Z,9.20
2018-05-24T11:22:56.933Z,8.30
2018-05-24T11:25:25.325Z,8.67
2018-05-24T11:27:53.768Z,11.40
2018-05-24T11:30:23.214Z,12.17
2018-05-24T11:32:51.697Z,16.80
2018-05-24T11:35:20.118Z,18.13
2018-05-24T11:37:48.594Z,20.33
2018-05-24T11:40:17.049Z,21.13
2018-05-24T11:42:45.465Z,23.00
2018-05-24T11:45:13.891Z,25.50
2018-05-24T11:47:43.354Z,27.73
2018-05-24T11:50:12.699Z,28.07
2018-05-24T11:52:41.249Z,29.27
2018-05-24T11:55:09.677Z,29.93
2018-05-24T11:57:38.082Z,27.50
2018-05-24T12:00:06.496Z,31.40
2018-05-24T12:02:34.916Z,29.60
2018-05-24T12:05:03.391Z,31.73
2018-05-24T12:07:31.825Z,31.80
2018-05-24T12:10:00.291Z,30.30
2018-05-24T12:12:28.700Z,30.07
2018-05-24T12:14:57.109Z,31.80
2018-05-24T12:17:25.594Z,28.83
2018-05-24T12:19:54.001Z,34.50
2018-05-24T12:22:22.391Z,30.17
2018-05-24T12:24:50.810Z,28.53
2018-05-24T12:27:19.187Z,31.17
2018-05-24T12:29:47.655Z,28.40
2018-05-24T12:32:16.171Z,27.17
2018-05-24T12:34:44.578Z,27.40
2018-05-24T12:37:13.005Z,27.23
2018-05-24T12:39:41.432Z,29.63
2018-05-24T12:42:09.881Z,32.00
2018-05-24T12:44:38.337Z,31.33
2018-05-24T12:47:06.745Z,31.30
2018-05-24T12:49:35.196Z,29.40
2018-05-24T12:52:03.626Z,30.07
2018-05-24T12:54:32.067Z,29.23
2018-05-24T12:57:00.491Z,34.27
2018-05-24T12:59:28.978Z,32.73
2018-05-24T13:01:57.392Z,34.47
2018-05-24T13:04:25.827Z,35.33
2018-05-24T13:06:54.225Z,37.33
2018-05-24T13:09:22.722Z,35.40
2018-05-24T13:11:51.141Z,36.47
2018-05-24T13:14:19.529Z,36.83
2018-05-24T13:16:48.071Z,36.20
2018-05-24T13:19:16.496Z,37.30
2018-05-24T13:21:44.920Z,35.77
2018-05-24T13:24:13.319Z,33.17
2018-05-24T13:26:41.746Z,40.43
2018-05-24T13:29:10.240Z,32.37
2018-05-24T13:31:38.628Z,32.83
2018-05-24T13:34:07.053Z,35.50
2018-05-24T13:36:35.473Z,40.47
2018-05-24T13:39:04.150Z,34.37
2018-05-24T13:41:32.699Z,35.73
2018-05-24T13:44:01.131Z,32.63
2018-05-24T13:46:29.586Z,36.13
2018-05-24T13:48:58.112Z,38.10
2018-05-24T13:51:26.591Z,39.30
2018-05-24T13:53:55.262Z,35.13
2018-05-24T13:56:23.746Z,29.93
2018-05-24T13:58:52.295Z,31.77
2018-05-24T14:01:20.797Z,38.50
2018-05-24T14:03:49.338Z,33.17
2018-05-24T14:06:17.924Z,34.77
2018-05-24T14:08:46.358Z,34.10
2018-05-24T14:11:14.967Z,36.73
2018-05-24T14:13:43.522Z,35.00
2018-05-24T14:16:12.014Z,36.20
2018-05-24T14:18:40.581Z,37.67
2018-05-24T14:21:09.168Z,34.47
2018-05-24T14:23:37.703Z,33.07
2018-05-24T14:26:06.247Z,30.70
2018-05-24T14:28:34.649Z,31.23
2018-05-24T14:31:03.159Z,30.90
2018-05-24T14:33:31.776Z,29.77
2018-05-24T14:36:00.276Z,34.30
2018-05-24T14:38:28.733Z,30.43
2018-05-24T14:40:57.277Z,28.93
2018-05-24T14:43:25.782Z,33.40
2018-05-24T14:45:54.341Z,30.87
2018-05-24T14:48:22.952Z,34.57
2018-05-24T14:50:51.425Z,32.90
2018-05-24T14:53:19.911Z,32.43
2018-05-24T14:55:48.533Z,32.83
2018-05-24T14:58:16.951Z,29.70
2018-05-24T15:00:45.539Z,34.20
2018-05-24T15:03:13.908Z,31.77
2018-05-24T15:05:42.356Z,31.23
2018-05-24T15:08:10.956Z,38.63
2018-05-24T15:10:39.526Z,42.10
2018-05-24T15:13:07.975Z,34.43
2018-05-24T15:15:36.472Z,48.33
2018-05-24T15:18:04.942Z,35.13
2018-05-24T15:20:33.526Z,37.67
2018-05-24T15:23:03.004Z,35.73
2018-05-24T15:25:31.540Z,38.53
2018-05-24T15:28:00.203Z,37.40
2018-05-24T15:30:28.727Z,37.30
2018-05-24T15:32:57.307Z,42.90
2018-05-24T15:35:25.932Z,39.43
2018-05-24T15:37:54.600Z,39.67
2018-05-24T15:40:23.028Z,44.00
2018-05-24T15:42:54.333Z,42.23
2018-05-24T15:45:22.836Z,43.53
2018-05-24T15:47:51.368Z,45.60
2018-05-24T15:50:20.032Z,43.60
2018-05-24T15:52:48.579Z,45.07
2018-05-24T15:55:17.112Z,48.87
2018-05-24T15:57:45.608Z,43.23
2018-05-24T16:00:14.178Z,44.93
2018-05-24T16:02:42.999Z,44.30
2018-05-24T16:05:11.662Z,47.23
2018-05-24T16:07:40.356Z,45.17
2018-05-24T16:10:08.945Z,46.00
2018-05-24T16:12:37.445Z,45.80
2018-05-24T16:15:05.962Z,51.90
2018-05-24T16:17:34.457Z,43.00
2018-05-24T16:20:03.076Z,45.13
2018-05-24T16:22:31.638Z,43.17
2018-05-24T16:25:01.096Z,50.03
2018-05-24T16:27:29.814Z,44.00
2018-05-24T16:29:58.351Z,43.90
2018-05-24T16:32:26.931Z,45.00
2018-05-24T16:34:56.438Z,39.13
2018-05-24T16:37:25.506Z,41.70
2018-05-24T16:39:54.576Z,41.53
2018-05-24T16:42:23.248Z,49.90
2018-05-24T16:44:51.922Z,44.80
2018-05-24T16:47:20.379Z,39.97
2018-05-24T16:49:48.842Z,43.57
2018-05-24T16:52:17.408Z,41.93
2018-05-24T16:54:45.947Z,43.43
2018-05-24T16:57:14.422Z,44.67
2018-05-24T16:59:43.763Z,41.77
2018-05-24T17:02:13.846Z,47.73
2018-05-24T17:04:44.819Z,51.93
2018-05-24T17:07:16.006Z,46.13
2018-05-24T17:09:45.072Z,49.93
2018-05-24T17:12:13.514Z,48.33
2018-05-24T17:14:44.091Z,47.90
2018-05-24T17:17:12.773Z,48.63
2018-05-24T17:19:41.277Z,46.53
2018-05-24T17:22:09.839Z,47.43
2018-05-24T17:24:38.285Z,52.03
2018-05-24T17:27:06.932Z,58.47
2018-05-24T17:29:35.345Z,47.60
2018-05-24T17:32:04.856Z,48.43
2018-05-24T17:34:33.338Z,44.97
2018-05-24T17:37:01.790Z,48.53
2018-05-24T17:39:30.328Z,51.00
2018-05-24T17:41:59.947Z,54.03
2018-05-24T17:44:30.587Z,58.43
2018-05-24T17:46:59.392Z,54.40
2018-05-24T17:49:27.880Z,53.07
2018-05-24T17:51:56.354Z,49.93
2018-05-24T17:54:24.838Z,57.57
2018-05-24T17:56:53.389Z,53.43
2018-05-24T17:59:21.778Z,50.10
2018-05-24T18:01:50.245Z,56.50
2018-05-24T18:04:18.764Z,53.47
2018-05-24T18:06:47.263Z,54.63
2018-05-24T18:09:15.782Z,48.73
2018-05-24T18:11:44.200Z,51.87
2018-05-24T18:14:12.724Z,49.30
2018-05-24T18:16:41.181Z,55.57
2018-05-24T18:19:09.741Z,55.00
2018-05-24T18:21:38.287Z,54.80
2018-05-24T18:24:06.724Z,52.87
2018-05-24T18:26:35.253Z,52.10
2018-05-24T18:29:04.670Z,55.30
2018-05-24T18:31:33.079Z,51.47
2018-05-24T18:34:01.505Z,53.00
2018-05-24T18:36:30.027Z,55.30
2018-05-24T18:38:58.721Z,58.73
2018-05-24T18:41:27.419Z,53.40
2018-05-24T18:43:55.983Z,52.60
2018-05-24T18:46:25.592Z,52.97
2018-05-24T18:48:54.057Z,59.70
2018-05-24T18:51:22.580Z,54.10
2018-05-24T18:53:51.337Z,47.90
2018-05-24T18:56:19.762Z,47.57
2018-05-24T18:58:48.186Z,46.90
2018-05-24T19:01:16.717Z,47.67
2018-05-24T19:03:45.142Z,45.63
2018-05-24T19:06:13.605Z,46.70
2018-05-24T19:08:42.030Z,44.93
2018-05-24T19:11:10.530Z,43.07
2018-05-24T19:13:39.037Z,44.30
2018-05-24T19:16:07.630Z,44.87
2018-05-24T19:18:36.186Z,43.97
2018-05-24T19:21:04.634Z,42.17
2018-05-24T19:23:33.126Z,43.80
2018-05-24T19:26:01.535Z,44.13
2018-05-24T19:28:30.072Z,44.40
2018-05-24T19:30:59.848Z,44.90
2018-05-24T19:33:28.448Z,44.00
2018-05-24T19:35:57.037Z,41.97
2018-05-24T19:38:27.509Z,44.17
2018-05-24T19:40:56.026Z,37.07
2018-05-24T19:43:24.444Z,61.53
2018-05-24T19:45:52.991Z,45.30
2018-05-24T19:48:22.050Z,40.93
2018-05-24T19:50:50.822Z,39.97
2018-05-24T19:53:19.708Z,40.50
2018-05-24T19:55:48.588Z,45.97
2018-05-24T19:58:17.215Z,42.03
2018-05-24T20:00:45.788Z,38.87
2018-05-24T20:03:14.277Z,41.33
2018-05-24T20:05:42.813Z,39.70
2018-05-24T20:08:11.242Z,39.33
2018-05-24T20:10:39.845Z,37.80
2018-05-24T20:13:24.625Z,36.00
2018-05-24T20:15:53.045Z,38.50
2018-05-24T20:18:21.483Z,37.70
2018-05-24T20:20:50.015Z,42.00
2018-05-24T20:23:18.515Z,37.77
2018-05-24T20:25:47.063Z,38.03
2018-05-24T20:28:15.449Z,37.07
2018-05-24T20:30:43.853Z,42.23
2018-05-24T20:33:12.310Z,39.70
2018-05-24T20:35:40.737Z,33.80
2018-05-24T20:38:09.461Z,40.10
2018-05-24T20:40:37.930Z,39.30
2018-05-24T20:43:06.386Z,41.40
2018-05-24T20:45:34.818Z,40.20
2018-05-24T20:48:03.269Z,38.60
2018-05-24T20:50:31.842Z,41.87
2018-05-24T20:53:00.347Z,41.17
2018-05-24T20:55:28.837Z,42.93
2018-05-24T20:57:57.223Z,41.70
2018-05-24T21:00:25.750Z,40.07
2018-05-24T21:02:54.271Z,40.77
2018-05-24T21:05:22.740Z,39.23
2018-05-24T21:07:51.186Z,46.40
2018-05-24T21:10:19.711Z,43.83
2018-05-24T21:12:48.178Z,47.37
2018-05-24T21:15:16.633Z,46.73
2018-05-24T21:17:45.118Z,43.70
2018-05-24T21:20:14.534Z,46.93
2018-05-24T21:22:42.889Z,42.23
2018-05-24T21:25:11.399Z,50.13
2018-05-24T21:27:39.874Z,52.20
2018-05-24T21:30:08.313Z,43.37
2018-05-24T21:32:36.750Z,42.73
2018-05-24T21:35:05.131Z,45.07
2018-05-24T21:37:33.496Z,45.57
2018-05-24T21:40:02.915Z,41.07
2018-05-24T21:42:31.365Z,45.70
2018-05-24T21:44:59.742Z,41.80
2018-05-24T21:47:28.147Z,38.10
2018-05-24T21:49:56.605Z,36.37
2018-05-24T21:52:24.997Z,44.50
2018-05-24T21:54:53.380Z,37.60
2018-05-24T21:57:21.738Z,41.27
2018-05-24T21:59:50.168Z,40.17
2018-05-24T22:02:18.592Z,43.87
2018-05-24T22:04:46.969Z,40.10
2018-05-24T22:07:15.335Z,41.00
2018-05-24T22:09:43.735Z,43.77
2018-05-24T22:12:12.111Z,44.57
2018-05-24T22:14:40.609Z,40.77
2018-05-24T22:17:09.134Z,42.00
2018-05-24T22:19:37.441Z,41.10
2018-05-24T22:22:05.889Z,42.47
2018-05-24T22:24:34.274Z,43.90
2018-05-24T22:27:02.637Z,47.70
2018-05-24T22:29:31.088Z,44.37
2018-05-24T22:32:03.280Z,48.23
2018-05-24T22:34:32.454Z,44.80
2018-05-24T22:37:00.888Z,43.63
2018-05-24T22:39:29.294Z,43.53
2018-05-24T22:41:57.662Z,40.97
2018-05-24T22:44:26.044Z,49.93
2018-05-24T22:46:54.433Z,45.13
2018-05-24T22:49:22.804Z,42.90
2018-05-24T22:51:51.331Z,46.20
2018-05-24T22:54:19.735Z,39.10
2018-05-24T22:56:48.109Z,39.90
2018-05-24T22:59:16.607Z,45.07
2018-05-24T23:01:48.442Z,41.33
2018-05-24T23:04:16.916Z,37.87
2018-05-24T23:06:45.342Z,37.80
2018-05-24T23:09:13.827Z,37.67
2018-05-24T23:11:42.184Z,36.87
2018-05-24T23:14:10.619Z,34.33
2018-05-24T23:16:39.104Z,40.50
2018-05-24T23:19:07.543Z,37.97
2018-05-24T23:21:35.965Z,41.07
2018-05-24T23:24:04.352Z,43.33
2018-05-24T23:26:32.706Z,36.57
2018-05-24T23:29:01.085Z,38.83
2018-05-24T23:31:29.498Z,38.47
2018-05-24T23:33:58.068Z,36.83
2018-05-24T23:36:26.500Z,34.07
2018-05-24T23:38:54.860Z,35.30
2018-05-24T23:41:23.399Z,35.63
2018-05-24T23:43:51.869Z,49.93
2018-05-24T23:46:20.225Z,36.67
2018-05-24T23:48:49.410Z,37.30
2018-05-24T23:51:17.804Z,39.60
2018-05-24T23:53:46.175Z,36.73
2018-05-24T23:56:14.604Z,39.33
2018-05-24T23:58:43.103Z,37.30
